sim
Sign-in with your pilot id or email,
or register
Callsign
Passwort

Schedule Details

Flight Number: EWG1913
Departure: Dusseldorf International Airport (EDDL) at 07:45
Arrival: Munich Airport (EDDM) at 09:00
Route: Eurowings Passenger Schedule. Enter filed route here before submitting Pirep.

Weather Information
Getting current METAR information for EDDL 192220Z 03004KT CAVOK 14/07 Q1016 NOSIG
Getting current METAR information for EDDM 192220Z VRB01KT CAVOK 09/08 Q1017 NOSIG

Schedule Frequency

Route Map